Time;durP1;ratioP1;P1;durP2;ratioP2;P2;SDS_P1;SDS_P2;PMS_P1;PMS_P2;Temp;Humidity;BMP_temperature;BMP_pressure;BME280_temperature;BME280_humidity;BME280_pressure;Samples;Min_cycle;Max_cycle;Signal;HPM_P1;HPM_P2
2021/12/10 00:01:17;;;;;;;10.80;7.60;;;;;;;3.63;94.72;100387.72;1666241;84;21556;-66
2021/12/10 00:03:49;;;;;;;8.33;6.17;;;;;;;3.64;94.78;100385.93;1638875;85;21695;-61
2021/12/10 00:06:24;;;;;;;8.87;6.37;;;;;;;3.66;94.81;100383.98;1607366;87;21066;-63
2021/12/10 00:08:55;;;;;;;7.60;6.53;;;;;;;3.67;94.84;100381.20;1645214;85;21119;-62
2021/12/10 00:11:27;;;;;;;9.70;7.13;;;;;;;3.70;94.89;100383.54;1644794;84;21023;-62
2021/12/10 00:13:54;;;;;;;8.63;6.93;;;;;;;3.75;94.95;100384.91;1611961;85;20995;-62
2021/12/10 00:16:21;;;;;;;10.27;7.00;;;;;;;3.78;94.96;100382.83;1647712;85;21597;-61
2021/12/10 00:18:55;;;;;;;7.20;5.95;;;;;;;3.80;94.81;100377.41;1644399;85;21027;-61
2021/12/10 00:23:05;;;;;;;9.90;6.40;;;;;;;3.85;94.68;100382.60;1778931;78;22244;-65
2021/12/10 00:25:39;;;;;;;8.00;6.37;;;;;;;3.77;94.72;100388.23;1728461;82;21129;-62
2021/12/10 00:28:16;;;;;;;10.00;6.60;;;;;;;3.75;94.63;100388.87;1730985;82;21721;-62
2021/12/10 00:31:04;;;;;;;7.83;5.87;;;;;;;3.76;94.70;100391.86;1721036;82;21018;-61
2021/12/10 00:33:36;;;;;;;9.23;6.73;;;;;;;3.76;94.72;100395.32;1729238;82;22165;-61
2021/12/10 00:36:06;;;;;;;8.80;6.83;;;;;;;3.75;94.75;100387.09;1728139;82;21094;-64
2021/12/10 00:38:33;;;;;;;13.30;6.93;;;;;;;3.78;94.91;100385.95;1698605;83;21053;-61
2021/12/10 00:41:03;;;;;;;9.00;6.60;;;;;;;3.81;94.94;100390.45;1699268;83;21086;-60
2021/12/10 00:43:29;;;;;;;16.10;6.67;;;;;;;3.82;94.88;100390.78;1684205;84;21012;-60
2021/12/10 00:45:56;;;;;;;8.77;6.20;;;;;;;3.82;94.91;100390.78;1675288;84;21010;-61
2021/12/10 00:48:23;;;;;;;8.55;6.60;;;;;;;3.83;94.81;100393.78;1655713;85;21098;-61
2021/12/10 00:50:53;;;;;;;15.03;8.63;;;;;;;3.84;94.85;100395.45;1647858;86;21001;-61
2021/12/10 00:53:20;;;;;;;9.13;7.27;;;;;;;3.87;94.88;100390.38;1669943;85;21034;-62
2021/12/10 00:55:46;;;;;;;9.07;7.93;;;;;;;3.85;94.71;100389.19;1651553;85;21038;-60
2021/12/10 00:58:17;;;;;;;14.93;8.27;;;;;;;3.86;94.81;100383.42;1659113;85;21058;-61
2021/12/10 01:00:48;;;;;;;10.27;7.97;;;;;;;3.90;94.99;100379.55;1660984;85;21034;-60
2021/12/10 01:03:20;;;;;;;9.80;8.00;;;;;;;3.93;95.08;100366.05;1675939;84;20986;-61
2021/12/10 01:05:51;;;;;;;9.53;7.47;;;;;;;3.97;95.09;100368.74;1661243;86;21132;-61
2021/12/10 01:08:19;;;;;;;9.97;7.27;;;;;;;3.99;95.08;100368.60;1672928;84;21180;-63
2021/12/10 01:10:58;;;;;;;9.70;7.37;;;;;;;4.01;95.13;100367.97;1649677;85;21125;-64
2021/12/10 01:13:29;;;;;;;10.40;8.40;;;;;;;4.04;95.24;100363.23;1672877;84;21559;-61
2021/12/10 01:16:19;;;;;;;9.53;7.03;;;;;;;4.06;95.14;100355.19;1666672;84;21137;-62
2021/12/10 01:25:07;;;;;;;14.00;7.50;;;;;;;4.06;95.14;100359.96;1633208;86;21038;-62
2021/12/10 01:29:20;;;;;;;8.53;6.63;;;;;;;4.07;95.36;100348.95;1679470;84;20987;-61
2021/12/10 01:31:48;;;;;;;9.63;7.97;;;;;;;4.04;95.20;100350.55;1674851;85;21067;-64
2021/12/10 01:34:15;;;;;;;15.53;8.03;;;;;;;4.03;95.21;100349.72;1664403;85;21118;-61
2021/12/10 01:36:41;;;;;;;;;;;;;;;4.05;95.35;100338.53;1675149;84;21058;-61
2021/12/10 01:39:13;;;;;;;13.27;8.67;;;;;;;4.08;95.57;100344.81;1670554;84;20135;-61
2021/12/10 01:41:43;;;;;;;13.57;8.87;;;;;;;4.03;95.60;100343.13;1675527;84;21049;-62
2021/12/10 01:44:26;;;;;;;12.53;9.37;;;;;;;4.04;95.90;100343.95;1681011;82;21614;-60
2021/12/10 01:46:48;;;;;;;11.60;8.33;;;;;;;4.08;96.06;100342.17;1695141;83;21530;-62
2021/12/10 01:49:15;;;;;;;10.53;8.37;;;;;;;4.12;96.25;100333.48;1698446;83;21109;-61
2021/12/10 01:51:44;;;;;;;14.53;9.47;;;;;;;4.16;96.32;100333.53;1698650;83;21351;-61
2021/12/10 01:54:19;;;;;;;14.43;8.87;;;;;;;4.20;96.32;100332.28;1698427;83;21045;-61
2021/12/10 01:56:47;;;;;;;12.50;9.03;;;;;;;4.22;96.41;100324.20;1635520;84;21538;-61
2021/12/10 01:59:16;;;;;;;13.93;9.40;;;;;;;4.24;96.45;100314.36;1599951;87;21058;-62
2021/12/10 02:01:48;;;;;;;13.33;9.37;;;;;;;4.24;96.45;100313.03;1613881;87;21099;-63
2021/12/10 02:04:18;;;;;;;14.83;8.27;;;;;;;4.26;96.53;100316.36;1661432;85;21102;-61
2021/12/10 02:06:45;;;;;;;11.57;8.50;;;;;;;4.25;96.50;100314.67;1661892;85;21031;-61
2021/12/10 02:09:13;;;;;;;17.13;9.40;;;;;;;4.25;96.56;100318.14;1663111;85;21550;-62
2021/12/10 02:11:40;;;;;;;12.50;9.80;;;;;;;4.17;96.71;100325.15;1660989;82;20991;-61
2021/12/10 02:14:07;;;;;;;14.83;10.47;;;;;;;4.14;96.97;100315.70;1666513;85;20989;-61
2021/12/10 02:16:36;;;;;;;19.17;9.87;;;;;;;4.15;97.20;100320.02;1685098;85;21657;-61
2021/12/10 02:19:04;;;;;;;20.07;9.10;;;;;;;4.21;97.37;100322.05;1694636;85;20987;-61
2021/12/10 02:21:33;;;;;;;22.43;11.77;;;;;;;4.24;97.54;100322.27;1679736;85;21155;-61
2021/12/10 02:23:59;;;;;;;15.97;11.77;;;;;;;4.24;97.55;100324.91;1666019;85;21029;-61
2021/12/10 02:26:31;;;;;;;13.80;9.28;;;;;;;4.25;97.70;100326.55;1665719;84;21017;-62
2021/12/10 02:28:57;;;;;;;13.37;9.37;;;;;;;4.29;97.80;100331.87;1666198;84;21050;-62
2021/12/10 02:31:25;;;;;;;16.07;10.70;;;;;;;4.29;98.03;100338.47;1657164;85;21124;-62
2021/12/10 02:33:51;;;;;;;14.80;10.83;;;;;;;4.27;98.17;100328.55;1663457;85;21537;-62
2021/12/10 02:36:18;;;;;;;15.83;11.50;;;;;;;4.22;98.77;100330.80;1667080;84;21085;-60
2021/12/10 02:38:48;;;;;;;16.35;10.48;;;;;;;4.25;98.85;100330.51;1675807;85;21030;-61
2021/12/10 02:41:19;;;;;;;16.77;12.43;;;;;;;4.30;98.97;100330.91;1673874;85;21062;-61
2021/12/10 02:43:48;;;;;;;15.97;12.40;;;;;;;4.38;99.19;100334.95;1664964;84;21002;-62
2021/12/10 02:46:15;;;;;;;20.33;13.57;;;;;;;4.42;99.21;100338.95;1665357;83;21083;-61
2021/12/10 02:48:41;;;;;;;15.63;12.77;;;;;;;4.41;99.41;100337.30;1649090;85;21564;-70
2021/12/10 02:51:09;;;;;;;14.18;11.60;;;;;;;4.15;99.81;100304.69;1637434;86;21509;-60
2021/12/10 02:53:43;;;;;;;22.43;13.83;;;;;;;4.36;99.94;100338.22;1635254;86;21050;-62
2021/12/10 02:56:11;;;;;;;18.60;13.30;;;;;;;4.41;99.84;100325.92;1645358;84;21066;-62
2021/12/10 02:58:38;;;;;;;15.90;12.17;;;;;;;4.46;99.89;100326.28;1663807;85;21551;-63
2021/12/10 03:01:10;;;;;;;17.73;12.27;;;;;;;4.53;100.00;100326.03;1663184;85;21085;-62
2021/12/10 03:03:40;;;;;;;20.93;13.97;;;;;;;4.57;100.00;100326.56;1662104;85;21542;-64
2021/12/10 03:06:11;;;;;;;13.67;11.73;;;;;;;4.61;100.00;100330.06;1663394;85;21091;-62
2021/12/10 03:08:44;;;;;;;15.93;11.07;;;;;;;4.68;100.00;100327.67;1664905;85;21014;-61
2021/12/10 03:11:13;;;;;;;16.87;12.60;;;;;;;4.72;99.96;100329.02;1667947;84;21016;-61
2021/12/10 03:13:40;;;;;;;21.70;14.90;;;;;;;4.68;99.78;100340.38;1710443;82;21032;-61
2021/12/10 03:16:07;;;;;;;21.10;14.27;;;;;;;4.71;99.79;100334.45;1709387;82;21022;-61
2021/12/10 03:18:35;;;;;;;18.82;13.43;;;;;;;4.62;100.00;100338.84;1701751;82;21615;-62
2021/12/10 03:21:09;;;;;;;19.03;15.00;;;;;;;4.60;100.00;100341.63;1693392;82;21014;-62
2021/12/10 03:23:42;;;;;;;23.13;14.73;;;;;;;4.61;100.00;100337.98;1707875;82;21067;-59
2021/12/10 03:26:05;;;;;;;20.57;14.43;;;;;;;4.58;100.00;100342.77;1703020;82;21071;-61
2021/12/10 03:28:31;;;;;;;20.72;14.63;;;;;;;4.57;100.00;100343.23;1705124;82;21030;-61
2021/12/10 03:30:57;;;;;;;23.50;16.40;;;;;;;4.59;100.00;100343.08;1707581;82;20987;-62
2021/12/10 03:33:24;;;;;;;20.37;14.35;;;;;;;4.59;100.00;100352.33;1709680;82;21050;-66
2021/12/10 03:35:50;;;;;;;;;;;;;;;4.63;100.00;100353.69;1711230;82;21566;-64
2021/12/10 03:38:23;;;;;;;23.67;14.90;;;;;;;4.62;100.00;100358.14;1708160;82;20137;-61
2021/12/10 03:40:51;;;;;;;22.43;15.53;;;;;;;4.62;100.00;100352.04;1704317;82;21055;-61
2021/12/10 03:43:18;;;;;;;23.90;16.30;;;;;;;4.64;100.00;100350.90;1708764;82;21543;-63
2021/12/10 03:45:50;;;;;;;28.47;18.63;;;;;;;4.68;100.00;100351.44;1674140;82;21111;-62
2021/12/10 03:48:22;;;;;;;22.40;16.33;;;;;;;4.72;100.00;100344.05;1663745;85;20996;-61
2021/12/10 03:50:49;;;;;;;25.10;17.90;;;;;;;4.74;100.00;100356.11;1665954;85;21090;-61
2021/12/10 03:53:18;;;;;;;27.37;19.97;;;;;;;4.77;100.00;100349.22;1660648;85;20971;-62
2021/12/10 03:55:46;;;;;;;30.87;21.40;;;;;;;4.79;100.00;100349.89;1669416;84;21058;-60
2021/12/10 03:58:13;;;;;;;29.63;20.20;;;;;;;4.80;100.00;100333.55;1706772;84;21018;-66
2021/12/10 04:00:47;;;;;;;28.90;20.90;;;;;;;4.69;100.00;100314.82;1712369;84;21135;-62
2021/12/10 04:03:20;;;;;;;30.63;21.13;;;;;;;4.78;100.00;100330.23;1702940;84;21064;-65
2021/12/10 04:05:47;;;;;;;26.77;20.57;;;;;;;4.76;100.00;100334.84;1713391;84;21026;-60
2021/12/10 04:08:14;;;;;;;27.97;20.73;;;;;;;4.77;100.00;100350.53;1703941;84;20983;-61
2021/12/10 04:10:42;;;;;;;26.67;19.33;;;;;;;4.76;100.00;100360.75;1711846;84;21530;-62
2021/12/10 04:13:09;;;;;;;28.63;21.50;;;;;;;4.82;100.00;100360.63;1712279;84;21360;-61
2021/12/10 04:15:36;;;;;;;;;;;;;;;4.82;100.00;100356.67;1712117;82;21015;-62
2021/12/10 04:18:05;;;;;;;31.13;22.33;;;;;;;4.85;100.00;100353.24;1707938;84;20133;-60
2021/12/10 04:20:32;;;;;;;31.80;23.40;;;;;;;4.81;100.00;100351.06;1712929;84;20985;-63
2021/12/10 04:23:02;;;;;;;33.93;22.80;;;;;;;4.84;100.00;100350.28;1706810;82;21066;-62
2021/12/10 04:25:29;;;;;;;28.23;20.83;;;;;;;4.85;99.90;100344.00;1699150;82;21498;-62
2021/12/10 04:28:00;;;;;;;28.92;21.02;;;;;;;4.87;99.71;100347.31;1705490;82;21432;-61
2021/12/10 04:30:35;;;;;;;26.40;19.27;;;;;;;4.85;99.51;100336.58;1703001;82;21534;-61
2021/12/10 04:32:57;;;;;;;27.00;20.90;;;;;;;4.86;99.46;100344.36;1699749;82;21085;-62
2021/12/10 04:35:23;;;;;;;28.17;21.70;;;;;;;4.84;99.19;100351.59;1715381;82;21043;-62
2021/12/10 04:37:49;;;;;;;28.92;20.35;;;;;;;4.82;99.12;100338.19;1723496;82;21042;-62
2021/12/10 04:40:21;;;;;;;31.33;22.20;;;;;;;4.84;99.06;100341.50;1713357;82;21015;-66
2021/12/10 04:42:46;;;;;;;30.07;24.60;;;;;;;4.86;98.91;100339.57;1721427;82;21149;-62
2021/12/10 04:45:14;;;;;;;29.35;23.87;;;;;;;4.89;99.00;100339.25;1707611;82;21034;-60
2021/12/10 04:47:41;;;;;;;29.93;22.13;;;;;;;4.93;98.88;100337.14;1701924;84;21070;-62
2021/12/10 04:50:08;;;;;;;;;;;;;;;4.91;98.47;100333.32;1702400;84;21103;-63
2021/12/10 04:52:35;;;;;;;33.48;22.85;;;;;;;4.91;98.43;100339.10;1690475;84;20942;-64
2021/12/10 04:55:05;;;;;;;28.87;20.60;;;;;;;4.83;98.51;100336.72;1698933;84;21014;-62
2021/12/10 04:57:32;;;;;;;25.37;19.83;;;;;;;4.84;98.43;100331.80;1685557;84;20988;-61
2021/12/10 04:59:58;;;;;;;30.07;22.43;;;;;;;4.82;98.39;100340.83;1682638;84;21626;-61
2021/12/10 05:02:25;;;;;;;25.02;20.43;;;;;;;4.84;98.41;100340.19;1713807;82;21006;-60
2021/12/10 05:04:56;;;;;;;22.67;18.60;;;;;;;4.85;98.47;100338.72;1722989;82;22105;-62
2021/12/10 05:07:20;;;;;;;24.67;18.80;;;;;;;4.88;98.40;100341.06;1722057;82;21098;-62
2021/12/10 05:09:46;;;;;;;;;;;;;;;4.92;98.30;100337.64;1723231;82;20979;-64
2021/12/10 05:12:13;;;;;;;21.10;16.10;;;;;;;4.92;98.02;100340.78;1683603;82;20146;-67
2021/12/10 05:14:41;;;;;;;20.17;15.80;;;;;;;4.90;98.05;100339.60;1638848;86;21141;-62
2021/12/10 05:17:09;;;;;;;22.25;16.57;;;;;;;4.89;98.00;100347.17;1652552;86;21019;-61
2021/12/10 05:19:40;;;;;;;20.97;15.43;;;;;;;4.81;97.67;100340.00;1647718;86;21059;-62
2021/12/10 05:22:10;;;;;;;19.20;14.20;;;;;;;4.82;97.67;100339.51;1641713;85;21074;-61
2021/12/10 05:24:37;;;;;;;23.37;16.90;;;;;;;4.76;97.63;100339.62;1673689;85;21006;-62
2021/12/10 05:27:04;;;;;;;23.13;16.77;;;;;;;4.79;97.71;100340.65;1675588;84;21163;-61
2021/12/10 05:29:31;;;;;;;20.77;16.60;;;;;;;4.85;97.71;100346.64;1678354;84;21016;-63
2021/12/10 05:31:59;;;;;;;;;;;;;;;4.90;97.70;100354.12;1683217;84;21158;-60
2021/12/10 05:34:26;;;;;;;20.77;15.00;;;;;;;4.94;97.55;100348.05;1687476;84;20446;-63
2021/12/10 05:36:52;;;;;;;23.93;18.10;;;;;;;4.87;97.24;100359.20;1675255;84;21499;-64
2021/12/10 05:39:23;;;;;;;25.17;16.67;;;;;;;4.87;97.21;100353.09;1679900;84;21051;-70
2021/12/10 05:41:49;;;;;;;25.93;19.33;;;;;;;4.85;97.08;100352.42;1677533;84;21006;-61
2021/12/10 05:44:18;;;;;;;25.27;18.87;;;;;;;4.84;97.07;100356.88;1662560;84;21101;-65
2021/12/10 05:46:45;;;;;;;30.60;20.30;;;;;;;4.85;97.23;100366.45;1646996;87;21005;-62
2021/12/10 05:49:11;;;;;;;29.07;21.50;;;;;;;4.93;97.37;100371.47;1638775;86;21012;-62
2021/12/10 05:51:38;;;;;;;24.97;17.93;;;;;;;4.98;97.18;100374.00;1663639;85;21487;-63
2021/12/10 05:54:05;;;;;;;24.63;17.35;;;;;;;5.01;96.88;100368.90;1617129;87;21083;-63
2021/12/10 05:56:32;;;;;;;22.67;17.43;;;;;;;5.02;96.81;100381.14;1679348;84;21054;-65
2021/12/10 05:58:59;;;;;;;23.47;18.12;;;;;;;5.02;96.40;100378.50;1696511;84;21080;-63
2021/12/10 06:01:27;;;;;;;24.07;16.85;;;;;;;5.05;96.41;100382.17;1699702;84;21448;-61
2021/12/10 06:03:54;;;;;;;23.53;17.67;;;;;;;5.03;96.22;100370.42;1687059;84;21094;-60
2021/12/10 06:06:28;;;;;;;22.97;18.20;;;;;;;5.03;96.33;100380.17;1694003;84;21131;-70
2021/12/10 06:08:58;;;;;;;22.13;18.00;;;;;;;5.07;96.37;100376.24;1683746;84;21075;-61
2021/12/10 06:11:26;;;;;;;23.63;16.50;;;;;;;5.10;96.17;100374.59;1688995;84;21181;-63
2021/12/10 06:13:56;;;;;;;25.37;18.43;;;;;;;5.12;95.75;100375.77;1675201;83;21550;-63
2021/12/10 06:16:23;;;;;;;29.40;20.57;;;;;;;5.06;95.42;100382.49;1672924;83;21014;-64
2021/12/10 06:18:49;;;;;;;26.37;20.30;;;;;;;5.04;95.50;100372.07;1691898;83;21596;-65
2021/12/10 06:21:17;;;;;;;26.47;19.80;;;;;;;5.06;95.67;100373.24;1684696;83;21069;-65
2021/12/10 06:23:44;;;;;;;30.63;21.20;;;;;;;5.12;95.79;100378.41;1703192;83;21034;-63
2021/12/10 06:26:12;;;;;;;29.00;20.47;;;;;;;5.18;95.77;100380.44;1702052;83;21046;-62
2021/12/10 06:28:44;;;;;;;25.53;20.33;;;;;;;5.23;95.75;100379.00;1710104;83;21205;-63
2021/12/10 06:31:07;;;;;;;25.33;20.10;;;;;;;5.28;95.65;100378.56;1708856;83;21084;-63
2021/12/10 06:33:35;;;;;;;28.50;20.33;;;;;;;5.29;95.18;100376.23;1696272;82;21046;-64
2021/12/10 06:36:05;;;;;;;24.87;20.08;;;;;;;5.31;95.15;100371.63;1719516;82;21447;-63
2021/12/10 06:38:34;;;;;;;27.67;20.83;;;;;;;5.32;94.94;100371.16;1690357;82;21009;-74
2021/12/10 06:41:02;;;;;;;27.80;21.03;;;;;;;5.13;94.65;100346.56;1706109;82;21067;-62
2021/12/10 06:43:29;;;;;;;27.00;18.57;;;;;;;5.26;94.32;100372.10;1701730;82;21499;-63
2021/12/10 06:45:57;;;;;;;29.95;21.30;;;;;;;5.15;94.24;100369.70;1698804;82;20964;-64
2021/12/10 06:48:26;;;;;;;23.80;18.60;;;;;;;5.17;94.53;100368.23;1698444;83;21503;-70
2021/12/10 06:50:58;;;;;;;23.97;18.40;;;;;;;5.19;94.65;100374.19;1704276;83;21101;-64
2021/12/10 06:53:27;;;;;;;23.43;17.23;;;;;;;5.18;94.61;100379.12;1707266;83;21467;-64
2021/12/10 06:55:54;;;;;;;22.80;17.73;;;;;;;5.22;94.76;100377.86;1703416;82;21059;-62
2021/12/10 06:58:23;;;;;;;24.27;18.90;;;;;;;5.26;94.84;100368.14;1709647;82;20968;-64
2021/12/10 07:00:54;;;;;;;28.47;21.37;;;;;;;5.32;94.59;100376.45;1708341;82;21527;-66
2021/12/10 07:03:26;;;;;;;28.63;20.43;;;;;;;5.32;94.13;100372.48;1718476;82;21506;-64
2021/12/10 07:05:55;;;;;;;28.00;19.60;;;;;;;5.32;94.26;100374.62;1713689;82;22044;-64
2021/12/10 07:08:24;;;;;;;23.20;18.80;;;;;;;5.36;94.37;100372.51;1717973;82;20979;-64
2021/12/10 07:10:51;;;;;;;24.73;18.23;;;;;;;5.40;94.20;100366.75;1715846;82;21241;-62
2021/12/10 07:13:18;;;;;;;26.57;20.27;;;;;;;5.44;93.34;100372.09;1714046;83;20983;-64
2021/12/10 07:15:48;;;;;;;36.80;21.02;;;;;;;5.48;93.20;100372.58;1713728;83;21015;-63
2021/12/10 07:18:19;;;;;;;26.70;18.70;;;;;;;5.53;93.22;100376.10;1714201;83;21072;-62
2021/12/10 07:20:47;;;;;;;23.73;17.80;;;;;;;5.52;92.66;100375.28;1706349;83;21121;-62
2021/12/10 07:23:13;;;;;;;24.97;17.60;;;;;;;5.58;92.92;100381.77;1713093;83;21080;-62
2021/12/10 07:25:40;;;;;;;20.00;16.07;;;;;;;5.63;92.92;100382.11;1713937;83;21570;-63
2021/12/10 07:28:07;;;;;;;24.03;18.00;;;;;;;5.30;92.45;100311.02;1712229;84;21027;-63
2021/12/10 07:30:36;;;;;;;24.70;17.77;;;;;;;5.67;92.33;100370.27;1701604;83;21031;-67
2021/12/10 07:33:07;;;;;;;23.10;18.10;;;;;;;5.70;92.11;100367.28;1711620;83;21050;-63
2021/12/10 07:35:36;;;;;;;23.70;20.37;;;;;;;5.75;92.21;100363.69;1714562;83;21066;-65
2021/12/10 07:38:03;;;;;;;26.13;20.83;;;;;;;5.72;91.98;100356.55;1714736;83;20991;-62
2021/12/10 07:40:35;;;;;;;27.03;21.90;;;;;;;5.73;92.33;100366.98;1714173;83;21104;-63
2021/12/10 07:43:02;;;;;;;30.70;20.53;;;;;;;5.72;92.26;100364.48;1709345;83;21066;-63
2021/12/10 07:45:29;;;;;;;26.17;19.77;;;;;;;5.62;92.16;100360.13;1715445;82;21460;-62
2021/12/10 07:48:00;;;;;;;30.77;21.07;;;;;;;5.64;92.51;100343.61;1714869;82;21611;-62
2021/12/10 07:50:32;;;;;;;28.47;20.67;;;;;;;5.69;92.68;100352.89;1704763;82;21618;-64
2021/12/10 07:52:59;;;;;;;23.77;17.83;;;;;;;5.65;92.54;100343.96;1711374;82;21058;-62
2021/12/10 07:55:28;;;;;;;;;;;;;;;5.62;92.69;100344.27;1713209;82;21075;-64
2021/12/10 07:57:55;;;;;;;21.27;16.63;;;;;;;5.48;92.77;100346.14;1706200;82;20137;-66
2021/12/10 08:00:26;;;;;;;23.07;17.80;;;;;;;5.56;92.95;100339.61;1713782;82;21032;-64
2021/12/10 08:02:52;;;;;;;28.60;20.80;;;;;;;5.61;93.21;100323.27;1711502;83;21543;-64
2021/12/10 08:05:24;;;;;;;26.10;19.73;;;;;;;5.69;93.28;100317.19;1715027;84;21506;-62
2021/12/10 08:07:53;;;;;;;25.13;19.13;;;;;;;5.76;93.31;100326.98;1713414;83;21012;-63
2021/12/10 08:10:22;;;;;;;25.40;18.90;;;;;;;5.83;93.21;100320.08;1707123;83;20980;-62
2021/12/10 08:12:49;;;;;;;21.77;18.50;;;;;;;5.89;92.30;100321.77;1689810;83;21126;-65
2021/12/10 08:15:16;;;;;;;26.30;19.70;;;;;;;5.93;92.24;100324.42;1681322;84;22021;-63
2021/12/10 08:17:44;;;;;;;21.53;18.07;;;;;;;5.99;91.97;100311.91;1665891;84;22555;-65
2021/12/10 08:20:14;;;;;;;22.23;18.77;;;;;;;6.06;91.49;100317.41;1669548;84;21054;-63
2021/12/10 08:22:40;;;;;;;23.03;18.70;;;;;;;6.14;91.32;100312.13;1675685;84;21048;-64
2021/12/10 08:25:09;;;;;;;22.70;17.47;;;;;;;6.22;90.94;100317.47;1680588;84;21090;-63
2021/12/10 08:27:37;;;;;;;20.70;17.07;;;;;;;6.31;90.48;100297.13;1681502;84;21069;-62
2021/12/10 08:30:08;;;;;;;21.00;17.00;;;;;;;6.31;89.32;100300.63;1677726;84;21081;-71
2021/12/10 08:32:36;;;;;;;22.40;17.33;;;;;;;6.29;88.85;100293.34;1677485;84;21542;-64
2021/12/10 08:35:07;;;;;;;25.83;19.63;;;;;;;6.37;88.81;100303.12;1680778;84;21002;-66
2021/12/10 08:37:34;;;;;;;23.90;18.90;;;;;;;6.35;88.43;100305.93;1680002;84;21170;-60
2021/12/10 08:40:01;;;;;;;24.17;18.87;;;;;;;6.37;88.56;100303.12;1687801;84;21586;-58
2021/12/10 08:42:29;;;;;;;22.77;18.23;;;;;;;6.41;88.77;100306.59;1678581;84;21097;-64
2021/12/10 08:44:55;;;;;;;29.63;19.27;;;;;;;6.45;88.99;100311.58;1675905;83;21560;-69
2021/12/10 08:47:22;;;;;;;24.20;20.75;;;;;;;6.47;88.72;100298.50;1673974;84;21002;-64
2021/12/10 08:49:48;;;;;;;25.25;19.23;;;;;;;6.51;88.85;100305.13;1676865;84;21042;-61
2021/12/10 08:52:15;;;;;;;29.37;22.05;;;;;;;6.49;88.74;100307.61;1684058;84;21048;-63
2021/12/10 08:54:42;;;;;;;23.13;20.17;;;;;;;6.49;89.24;100306.29;1685798;84;21178;-62
2021/12/10 08:57:09;;;;;;;24.95;20.10;;;;;;;6.53;89.64;100308.94;1678240;84;20997;-63
2021/12/10 08:59:39;;;;;;;25.90;20.97;;;;;;;6.58;89.60;100302.16;1679338;84;21139;-64
2021/12/10 09:02:13;;;;;;;27.50;22.70;;;;;;;6.60;88.96;100293.55;1692854;83;21039;-70
2021/12/10 09:04:41;;;;;;;28.83;22.93;;;;;;;6.58;89.21;100294.22;1680710;84;21533;-66
2021/12/10 09:07:12;;;;;;;28.07;23.07;;;;;;;6.55;89.17;100300.33;1689460;84;21055;-62
2021/12/10 09:09:43;;;;;;;27.30;21.67;;;;;;;6.55;89.52;100303.80;1689607;84;21111;-61
2021/12/10 09:12:16;;;;;;;28.53;20.47;;;;;;;6.49;89.43;100300.48;1691804;83;21052;-63
2021/12/10 09:14:47;;;;;;;23.93;19.60;;;;;;;6.45;89.54;100318.20;1692319;84;21811;-59
2021/12/10 09:17:17;;;;;;;26.50;18.97;;;;;;;6.42;89.90;100284.91;1702462;83;21069;-64
2021/12/10 09:19:43;;;;;;;29.20;19.73;;;;;;;6.31;90.03;100329.75;1702124;83;21058;-64
2021/12/10 09:22:11;;;;;;;25.87;19.27;;;;;;;6.23;90.46;100306.73;1675151;82;21494;-62
2021/12/10 09:24:40;;;;;;;24.10;19.60;;;;;;;6.17;90.84;100299.41;1682604;84;21661;-61
2021/12/10 09:27:08;;;;;;;23.80;19.70;;;;;;;6.17;91.17;100302.56;1685086;84;21064;-62
2021/12/10 09:29:40;;;;;;;26.00;20.90;;;;;;;6.12;90.97;100296.91;1680831;84;21034;-63
2021/12/10 09:32:11;;;;;;;22.20;19.27;;;;;;;6.16;91.19;100282.36;1682450;84;20975;-63
2021/12/10 09:34:38;;;;;;;23.27;19.07;;;;;;;6.18;91.06;100289.17;1687299;84;21077;-60
2021/12/10 09:37:06;;;;;;;20.80;18.57;;;;;;;6.18;90.87;100284.37;1683861;84;21011;-63
2021/12/10 09:39:33;;;;;;;22.43;18.53;;;;;;;6.15;90.89;100271.46;1680724;84;21094;-60
2021/12/10 09:42:00;;;;;;;;;;;;;;;6.10;90.59;100290.95;1686025;84;21062;-64
2021/12/10 09:44:27;;;;;;;27.07;20.10;;;;;;;6.11;90.57;100272.27;1683865;84;20128;-64
2021/12/10 09:46:57;;;;;;;21.90;18.03;;;;;;;6.09;90.90;100277.41;1679721;84;20997;-61
2021/12/10 09:49:24;;;;;;;19.30;17.00;;;;;;;6.15;91.05;100264.84;1682576;84;21177;-67
2021/12/10 09:51:58;;;;;;;23.23;18.13;;;;;;;6.22;91.04;100258.73;1674079;84;21066;-62
2021/12/10 09:54:28;;;;;;;20.93;18.13;;;;;;;6.26;89.99;100264.54;1667841;84;21023;-66
2021/12/10 09:57:04;;;;;;;22.77;19.27;;;;;;;6.31;89.99;100260.92;1681892;84;21003;-63
2021/12/10 09:59:33;;;;;;;23.97;19.07;;;;;;;6.35;89.90;100262.25;1692179;84;21050;-61
2021/12/10 10:02:01;;;;;;;23.67;19.37;;;;;;;6.35;89.05;100274.66;1667545;84;21065;-65
2021/12/10 10:04:34;;;;;;;22.50;18.90;;;;;;;6.36;89.18;100266.53;1674952;83;21062;-62
2021/12/10 10:07:05;;;;;;;23.00;18.43;;;;;;;6.34;88.82;100265.87;1670074;84;21057;-61
2021/12/10 10:09:31;;;;;;;21.23;17.77;;;;;;;6.27;88.90;100271.47;1669730;84;21041;-64
2021/12/10 10:12:06;;;;;;;23.30;18.47;;;;;;;6.17;89.30;100257.06;1672002;84;21046;-63
2021/12/10 10:14:34;;;;;;;22.27;17.93;;;;;;;6.19;89.50;100268.81;1676848;84;21013;-64
2021/12/10 10:17:01;;;;;;;22.97;18.00;;;;;;;6.18;89.21;100263.20;1669672;84;21066;-60
2021/12/10 10:19:28;;;;;;;19.95;16.73;;;;;;;6.22;89.26;100268.50;1673635;84;20965;-62
2021/12/10 10:21:57;;;;;;;24.00;19.27;;;;;;;6.18;89.02;100273.80;1673647;84;21007;-63
2021/12/10 10:24:28;;;;;;;23.97;18.50;;;;;;;6.18;89.17;100249.98;1695016;84;21711;-63
2021/12/10 10:27:03;;;;;;;24.93;19.97;;;;;;;6.23;89.41;100239.23;1685259;84;21063;-66
2021/12/10 10:29:36;;;;;;;24.98;20.15;;;;;;;6.25;89.15;100235.08;1671227;84;21078;-71
2021/12/10 10:32:11;;;;;;;25.47;20.03;;;;;;;6.27;89.43;100234.92;1676661;84;21060;-62
2021/12/10 10:34:43;;;;;;;24.97;20.83;;;;;;;6.34;89.52;100242.55;1673315;84;21085;-64
2021/12/10 10:37:10;;;;;;;23.43;19.83;;;;;;;6.34;89.13;100234.10;1681061;84;21045;-63
2021/12/10 10:39:38;;;;;;;23.43;20.23;;;;;;;6.39;89.18;100252.16;1683151;84;21071;-61
2021/12/10 10:42:11;;;;;;;23.70;20.07;;;;;;;6.43;89.30;100253.48;1685902;84;21051;-61
2021/12/10 10:44:38;;;;;;;25.13;19.40;;;;;;;6.48;88.91;100233.13;1681620;83;21015;-63
2021/12/10 10:47:04;;;;;;;22.37;19.97;;;;;;;6.52;88.74;100236.62;1671263;84;21020;-63
2021/12/10 10:49:41;;;;;;;23.42;19.67;;;;;;;6.55;88.75;100223.03;1678984;84;21525;-60
2021/12/10 10:52:31;;;;;;;26.52;20.85;;;;;;;6.61;88.63;100208.30;1682676;84;21138;-62
2021/12/10 10:55:14;;;;;;;25.43;17.63;;;;;;;6.64;88.45;100213.28;1673852;84;21102;-60
2021/12/10 10:57:52;;;;;;;23.47;19.83;;;;;;;6.62;88.36;100259.78;1647809;85;21064;-64
2021/12/10 11:00:49;;;;;;;20.43;18.17;;;;;;;6.52;88.18;100218.08;1647730;85;21130;-62
2021/12/10 11:03:17;;;;;;;23.03;18.10;;;;;;;6.46;88.87;100214.78;1628881;86;21035;-60
2021/12/10 11:05:52;;;;;;;23.13;19.47;;;;;;;6.45;89.23;100201.70;1685462;84;21079;-62
2021/12/10 11:08:41;;;;;;;22.10;18.67;;;;;;;6.46;89.43;100194.06;1678828;84;20929;-63
2021/12/10 11:11:15;;;;;;;23.57;19.43;;;;;;;6.49;89.74;100222.88;1685732;84;20980;-62
2021/12/10 11:13:49;;;;;;;23.50;19.80;;;;;;;6.48;89.95;100192.08;1683700;84;21020;-61
2021/12/10 11:16:20;;;;;;;21.87;19.37;;;;;;;6.51;90.04;100178.52;1676396;84;21606;-62
2021/12/10 11:19:14;;;;;;;23.57;20.83;;;;;;;6.51;90.16;100186.47;1683978;84;21022;-65
2021/12/10 11:21:57;;;;;;;24.90;22.23;;;;;;;6.57;90.32;100181.82;1680537;84;21140;-65
2021/12/10 11:24:46;;;;;;;23.50;21.00;;;;;;;6.57;90.41;100180.50;1666128;84;21070;-62
2021/12/10 11:27:27;;;;;;;24.00;17.70;;;;;;;6.59;90.57;100174.06;1676427;84;21058;-65
2021/12/10 11:30:05;;;;;;;29.90;20.17;;;;;;;6.60;90.30;100181.50;1672792;84;21048;-61
2021/12/10 11:32:49;;;;;;;27.90;21.23;;;;;;;6.55;90.42;100191.25;1675648;84;21031;-61
2021/12/10 11:35:27;;;;;;;24.37;19.20;;;;;;;6.56;90.51;100171.73;1685916;84;21021;-62
2021/12/10 11:38:13;;;;;;;26.43;21.17;;;;;;;6.62;90.74;100183.48;1684401;84;21003;-61
2021/12/10 11:41:09;;;;;;;25.47;20.33;;;;;;;6.63;90.89;100167.44;1682183;84;21171;-63
2021/12/10 11:43:52;;;;;;;24.33;21.10;;;;;;;6.62;91.05;100179.00;1674338;84;20952;-62